createdAt,value
2023-03-29T00:00:42.105Z,100607.66
2023-03-29T00:01:43.896Z,100610.19
2023-03-29T00:02:48.744Z,100604.13
2023-03-29T00:03:52.063Z,100607.59
2023-03-29T00:04:54.179Z,100598.00
2023-03-29T00:06:04.101Z,100602.34
2023-03-29T00:07:06.119Z,100605.81
2023-03-29T00:08:08.929Z,100609.28
2023-03-29T00:09:10.796Z,100613.66
2023-03-29T00:10:13.178Z,100619.75
2023-03-29T00:11:15.120Z,100627.56
2023-03-29T00:12:17.542Z,100625.81
2023-03-29T00:13:19.421Z,100631.03
2023-03-29T00:14:21.791Z,100632.78
2023-03-29T00:15:23.809Z,100636.25
2023-03-29T00:16:25.636Z,100629.28
2023-03-29T00:17:28.328Z,100631.03
2023-03-29T00:18:30.303Z,100636.25
2023-03-29T00:19:35.840Z,100628.38
2023-03-29T00:20:37.664Z,100643.19
2023-03-29T00:21:39.649Z,100633.59
2023-03-29T00:22:42.491Z,100639.69
2023-03-29T00:23:44.731Z,100638.81
2023-03-29T00:24:47.982Z,100636.22
2023-03-29T00:25:49.882Z,100644.06
2023-03-29T00:26:51.642Z,100642.28
2023-03-29T00:27:53.627Z,100645.75
2023-03-29T00:28:55.517Z,100645.72
2023-03-29T00:29:58.028Z,100646.59
2023-03-29T00:31:12.245Z,100650.94
2023-03-29T00:32:15.561Z,100647.44
2023-03-29T00:33:20.767Z,100648.31
2023-03-29T00:34:24.006Z,100650.03
2023-03-29T00:35:25.883Z,100646.53
2023-03-29T00:36:27.953Z,100654.38
2023-03-29T00:37:32.576Z,100656.09
2023-03-29T00:38:35.578Z,100659.59
2023-03-29T00:39:37.565Z,100659.53
2023-03-29T00:41:59.877Z,100666.50
2023-03-29T00:43:01.904Z,100656.91
2023-03-29T00:44:05.252Z,100654.28
2023-03-29T00:45:19.211Z,100657.78
2023-03-29T00:46:21.850Z,100650.81
2023-03-29T00:47:43.991Z,100652.56
2023-03-29T00:48:46.753Z,100656.03
2023-03-29T00:49:50.544Z,100657.72
2023-03-29T00:50:56.416Z,100657.72
2023-03-29T00:51:58.386Z,100659.44
2023-03-29T00:53:41.232Z,100661.22
2023-03-29T00:54:45.075Z,100655.09
2023-03-29T00:55:53.454Z,100652.47
2023-03-29T00:56:55.837Z,100652.47
2023-03-29T00:57:58.999Z,100649.84
2023-03-29T00:59:13.872Z,100656.81
2023-03-29T01:00:21.015Z,100655.97
2023-03-29T01:01:48.606Z,100660.31
2023-03-29T01:02:59.850Z,100659.41
2023-03-29T01:04:20.811Z,100657.66
2023-03-29T01:05:31.160Z,100654.97
2023-03-29T01:06:36.665Z,100661.97
2023-03-29T01:07:50.612Z,100654.13
2023-03-29T01:09:01.195Z,100660.22
2023-03-29T01:10:14.722Z,100661.09
2023-03-29T01:11:27.590Z,100658.50
2023-03-29T01:12:39.362Z,100657.63
2023-03-29T01:13:47.083Z,100650.63
2023-03-29T01:14:58.353Z,100642.75
2023-03-29T01:16:03.027Z,100649.72
2023-03-29T01:17:05.953Z,100646.25
2023-03-29T01:18:08.991Z,100654.97
2023-03-29T01:19:16.049Z,100647.97
2023-03-29T01:20:28.599Z,100648.84
2023-03-29T01:21:36.548Z,100654.91
2023-03-29T01:23:10.080Z,100656.69
2023-03-29T01:24:47.298Z,100655.78
2023-03-29T01:26:10.075Z,100643.59
2023-03-29T01:27:41.226Z,100647.06
2023-03-29T01:28:52.540Z,100647.91
2023-03-29T01:30:02.402Z,100640.94
2023-03-29T01:31:13.373Z,100651.38
2023-03-29T01:32:38.075Z,100654.00
2023-03-29T01:33:49.391Z,100652.28
2023-03-29T01:35:10.428Z,100644.47
2023-03-29T01:36:19.361Z,100647.94
2023-03-29T01:37:29.370Z,100636.63
2023-03-29T01:38:41.967Z,100636.63
2023-03-29T01:39:44.216Z,100650.50
2023-03-29T01:40:46.228Z,100651.41
2023-03-29T01:42:10.268Z,100647.94
2023-03-29T01:43:21.668Z,100653.16
2023-03-29T01:44:53.291Z,100651.50
2023-03-29T01:46:16.862Z,100652.38
2023-03-29T01:47:18.879Z,100653.25
2023-03-29T01:48:37.380Z,100646.31
2023-03-29T01:49:54.619Z,100648.06
2023-03-29T01:51:09.743Z,100651.56
2023-03-29T01:52:19.222Z,100649.84
2023-03-29T01:53:34.456Z,100651.59
2023-03-29T01:54:42.044Z,100652.50
2023-03-29T01:55:50.222Z,100660.34
2023-03-29T01:56:53.385Z,100662.09
2023-03-29T01:57:56.749Z,100661.28
2023-03-29T01:59:04.316Z,100663.91
2023-03-29T02:00:11.161Z,100652.63
2023-03-29T02:01:19.256Z,100660.44
2023-03-29T02:02:24.637Z,100661.34
2023-03-29T02:03:31.011Z,100664.88
2023-03-29T02:04:38.276Z,100658.84
2023-03-29T02:05:42.519Z,100675.38
2023-03-29T02:06:46.717Z,100678.00
2023-03-29T02:07:50.680Z,100672.78
2023-03-29T02:08:55.959Z,100672.81
2023-03-29T02:09:59.101Z,100670.19
2023-03-29T02:11:01.736Z,100669.38
2023-03-29T02:12:06.934Z,100670.22
2023-03-29T02:13:08.979Z,100673.75
2023-03-29T02:14:11.231Z,100664.22
2023-03-29T02:15:21.217Z,100672.91
2023-03-29T02:16:23.311Z,100679.03
2023-03-29T02:17:27.775Z,100664.28
2023-03-29T02:18:30.821Z,100666.84
2023-03-29T02:19:33.268Z,100680.81
2023-03-29T02:20:43.437Z,100673.00
2023-03-29T02:21:53.617Z,100667.75
2023-03-29T02:23:13.976Z,100677.38
2023-03-29T02:24:18.360Z,100680.81
2023-03-29T02:25:22.691Z,100674.72
2023-03-29T02:26:24.920Z,100678.25
2023-03-29T02:27:29.242Z,100670.44
2023-03-29T02:28:32.080Z,100682.59
2023-03-29T02:29:34.346Z,100689.53
2023-03-29T02:30:57.828Z,100675.66
2023-03-29T02:32:08.897Z,100669.56
2023-03-29T02:33:17.189Z,100665.31
2023-03-29T02:34:30.830Z,100672.31
2023-03-29T02:35:39.432Z,100672.31
2023-03-29T02:36:46.868Z,100673.97
2023-03-29T02:37:53.044Z,100675.72
2023-03-29T02:38:56.429Z,100672.22
2023-03-29T02:39:59.677Z,100670.47
2023-03-29T02:41:03.204Z,100678.31
2023-03-29T02:42:06.586Z,100682.66
2023-03-29T02:43:10.127Z,100677.44
2023-03-29T02:44:15.423Z,100671.34
2023-03-29T02:45:18.987Z,100675.66
2023-03-29T02:46:21.594Z,100679.13
2023-03-29T02:47:32.126Z,100674.78
2023-03-29T02:48:37.202Z,100683.53
2023-03-29T02:49:39.211Z,100680.88
2023-03-29T02:50:46.139Z,100682.72
2023-03-29T02:51:52.841Z,100687.06
2023-03-29T02:53:04.896Z,100680.97
2023-03-29T02:54:18.090Z,100686.16
2023-03-29T02:55:23.609Z,100687.03
2023-03-29T02:56:25.691Z,100680.91
2023-03-29T02:57:28.852Z,100697.50
2023-03-29T02:58:31.818Z,100690.66
2023-03-29T02:59:34.894Z,100695.84
2023-03-29T03:00:41.141Z,100679.19
2023-03-29T03:01:43.143Z,100683.56
2023-03-29T03:02:46.125Z,100682.75
2023-03-29T03:03:48.350Z,100683.56
2023-03-29T03:04:51.074Z,100694.81
2023-03-29T03:05:53.125Z,100693.03
2023-03-29T03:06:55.363Z,100700.09
2023-03-29T03:07:58.608Z,100696.72
2023-03-29T03:09:00.471Z,100703.69
2023-03-29T03:10:04.090Z,100691.44
2023-03-29T03:11:07.278Z,100700.16
2023-03-29T03:12:09.519Z,100691.47
2023-03-29T03:13:11.783Z,100702.69
2023-03-29T03:14:13.726Z,100708.78
2023-03-29T03:15:15.735Z,100701.75
2023-03-29T03:16:18.320Z,100710.56
2023-03-29T03:17:20.415Z,100718.34
2023-03-29T03:18:22.737Z,100676.72
2023-03-29T03:19:24.979Z,100706.22
2023-03-29T03:20:27.428Z,100704.47
2023-03-29T03:21:29.762Z,100693.06
2023-03-29T03:22:32.539Z,100695.63
2023-03-29T03:23:34.771Z,100702.63
2023-03-29T03:24:36.759Z,100704.34
2023-03-29T03:25:38.864Z,100693.91
2023-03-29T03:26:41.024Z,100709.59
2023-03-29T03:27:43.610Z,100703.56
2023-03-29T03:28:48.552Z,100713.16
2023-03-29T03:29:50.434Z,100713.16
2023-03-29T03:30:52.541Z,100706.16
2023-03-29T03:31:55.828Z,100710.59
2023-03-29T03:32:57.903Z,100707.00
2023-03-29T03:34:00.029Z,100708.72
2023-03-29T03:35:03.056Z,100715.69
2023-03-29T03:36:06.572Z,100704.47
2023-03-29T03:37:08.692Z,100704.50
2023-03-29T03:38:10.966Z,100700.94
2023-03-29T03:39:13.593Z,100707.06
2023-03-29T03:40:15.676Z,100717.50
2023-03-29T03:41:17.687Z,100717.59
2023-03-29T03:42:20.062Z,100717.59
2023-03-29T03:43:22.897Z,100708.81
2023-03-29T03:44:24.877Z,100715.75
2023-03-29T03:45:27.349Z,100713.97
2023-03-29T03:46:29.844Z,100718.25
2023-03-29T03:47:32.169Z,100713.03
2023-03-29T03:48:34.145Z,100712.16
2023-03-29T03:49:36.134Z,100709.59
2023-03-29T03:50:38.435Z,100717.47
2023-03-29T03:51:42.165Z,100722.84
2023-03-29T03:52:45.042Z,100702.03
2023-03-29T03:53:47.361Z,100712.41
2023-03-29T03:54:50.396Z,100715.03
2023-03-29T03:55:56.158Z,100705.53
2023-03-29T03:56:59.224Z,100702.91
2023-03-29T03:58:01.712Z,100710.63
2023-03-29T03:59:03.885Z,100710.53
2023-03-29T04:00:19.563Z,100693.94
2023-03-29T04:01:21.535Z,100713.09
2023-03-29T04:02:23.595Z,100707.81
2023-03-29T04:03:26.027Z,100713.91
2023-03-29T04:04:28.979Z,100710.41
2023-03-29T04:05:30.949Z,100713.91
2023-03-29T04:06:32.926Z,100700.84
2023-03-29T04:07:34.836Z,100713.94
2023-03-29T04:08:37.028Z,100705.22
2023-03-29T04:09:39.177Z,100699.16
2023-03-29T04:10:42.059Z,100707.84
2023-03-29T04:11:43.978Z,100705.28
2023-03-29T04:12:46.149Z,100714.94
2023-03-29T04:13:48.454Z,100705.44
2023-03-29T04:14:50.506Z,100706.28
2023-03-29T04:15:58.736Z,100701.13
2023-03-29T04:17:02.146Z,100698.59
2023-03-29T04:18:06.505Z,100696.13
2023-03-29T04:19:08.494Z,100707.31
2023-03-29T04:20:12.847Z,100715.06
2023-03-29T04:21:15.619Z,100714.13
2023-03-29T04:22:17.568Z,100698.50
2023-03-29T04:23:19.650Z,100718.53
2023-03-29T04:24:24.370Z,100710.66
2023-03-29T04:25:26.385Z,100714.22
2023-03-29T04:26:28.509Z,100713.38
2023-03-29T04:27:30.486Z,100702.03
2023-03-29T04:28:32.645Z,100713.28
2023-03-29T04:29:34.842Z,100710.69
2023-03-29T04:30:36.988Z,100712.41
2023-03-29T04:31:39.061Z,100714.22
2023-03-29T04:32:41.206Z,100703.81
2023-03-29T04:33:43.391Z,100689.06
2023-03-29T04:34:45.280Z,100681.28
2023-03-29T04:35:47.942Z,100711.78
2023-03-29T04:36:53.073Z,100710.84
2023-03-29T04:37:55.185Z,100702.97
2023-03-29T04:38:57.456Z,100709.06
2023-03-29T04:40:00.542Z,100714.16
2023-03-29T04:41:05.113Z,100717.59
2023-03-29T04:42:07.145Z,100722.84
2023-03-29T04:43:09.162Z,100722.81
2023-03-29T04:44:11.855Z,100724.56
2023-03-29T04:45:18.298Z,100730.69
2023-03-29T04:46:20.416Z,100728.16
2023-03-29T04:47:22.341Z,100732.56
2023-03-29T04:48:24.745Z,100729.06
2023-03-29T04:49:27.058Z,100731.75
2023-03-29T04:50:29.017Z,100734.41
2023-03-29T04:51:31.703Z,100735.22
2023-03-29T04:52:33.795Z,100727.41
2023-03-29T04:53:35.748Z,100741.38
2023-03-29T04:54:37.961Z,100730.06
2023-03-29T04:55:39.970Z,100731.81
2023-03-29T04:56:42.344Z,100744.03
2023-03-29T04:57:47.221Z,100737.91
2023-03-29T04:58:49.830Z,100742.19
2023-03-29T04:59:51.860Z,100743.06
2023-03-29T05:00:58.546Z,100741.38
2023-03-29T05:02:02.415Z,100735.22
2023-03-29T05:03:04.687Z,100730.94
2023-03-29T05:04:06.807Z,100744.06
2023-03-29T05:05:09.701Z,100747.59
2023-03-29T05:06:12.399Z,100743.22
2023-03-29T05:07:15.646Z,100743.22
2023-03-29T05:08:18.009Z,100742.38
2023-03-29T05:09:20.082Z,100738.88
2023-03-29T05:10:22.271Z,100737.16
2023-03-29T05:11:25.574Z,100738.88
2023-03-29T05:12:27.644Z,100745.84
2023-03-29T05:13:29.612Z,100738.91
2023-03-29T05:14:31.667Z,100735.47
2023-03-29T05:15:33.810Z,100732.06
2023-03-29T05:16:35.904Z,100741.78
2023-03-29T05:17:38.012Z,100745.25
2023-03-29T05:18:40.188Z,100747.88
2023-03-29T05:19:43.610Z,100749.59
2023-03-29T05:20:45.977Z,100748.75
2023-03-29T05:21:50.397Z,100741.00
2023-03-29T05:22:53.429Z,100745.34
2023-03-29T05:23:55.858Z,100742.72
2023-03-29T05:24:57.951Z,100747.03
2023-03-29T05:26:00.568Z,100754.03
2023-03-29T05:27:02.670Z,100748.75
2023-03-29T05:28:04.993Z,100751.31
2023-03-29T05:29:09.138Z,100754.78
2023-03-29T05:30:11.768Z,100758.31
2023-03-29T05:31:16.677Z,100759.22
2023-03-29T05:32:19.885Z,100760.13
2023-03-29T05:33:22.003Z,100754.88
2023-03-29T05:34:24.005Z,100760.19
2023-03-29T05:35:26.511Z,100763.75
2023-03-29T05:36:28.615Z,100762.81
2023-03-29T05:37:33.889Z,100758.44
2023-03-29T05:38:35.966Z,100763.72
2023-03-29T05:39:38.259Z,100756.72
2023-03-29T05:40:41.727Z,100762.00
2023-03-29T05:41:43.950Z,100767.19
2023-03-29T05:42:46.039Z,100758.47
2023-03-29T05:43:48.080Z,100765.47
2023-03-29T05:44:51.089Z,100755.91
2023-03-29T05:45:55.834Z,100769.88
2023-03-29T05:46:57.999Z,100769.03
2023-03-29T05:47:59.965Z,100774.31
2023-03-29T05:49:02.606Z,100775.19
2023-03-29T05:50:05.317Z,100756.00
2023-03-29T05:51:07.408Z,100771.69
2023-03-29T05:52:09.495Z,100763.84
2023-03-29T05:53:11.549Z,100782.19
2023-03-29T05:54:13.642Z,100779.59
2023-03-29T05:55:15.802Z,100772.59
2023-03-29T05:56:19.277Z,100768.22
2023-03-29T05:57:21.655Z,100771.72
2023-03-29T05:58:26.800Z,100767.44
2023-03-29T05:59:29.820Z,100770.03
2023-03-29T06:00:34.660Z,100782.16
2023-03-29T06:01:36.956Z,100774.31
2023-03-29T06:02:39.059Z,100774.28
2023-03-29T06:03:41.568Z,100770.81
2023-03-29T06:04:43.813Z,100782.19
2023-03-29T06:05:50.409Z,100777.78
2023-03-29T06:06:53.306Z,100774.31
2023-03-29T06:07:56.783Z,100781.31
2023-03-29T06:08:59.269Z,100762.19
2023-03-29T06:10:01.733Z,100756.94
2023-03-29T06:11:09.067Z,100770.94
2023-03-29T06:12:12.370Z,100771.75
2023-03-29T06:13:14.275Z,100768.28
2023-03-29T06:14:16.216Z,100768.25
2023-03-29T06:15:18.556Z,100774.38
2023-03-29T06:16:20.707Z,100770.03
2023-03-29T06:17:23.052Z,100776.19
2023-03-29T06:18:25.192Z,100774.44
2023-03-29T06:19:27.459Z,100783.19
2023-03-29T06:20:29.769Z,100781.53
2023-03-29T06:21:31.864Z,100784.16
2023-03-29T06:22:33.873Z,100772.81
2023-03-29T06:23:36.600Z,100778.06
2023-03-29T06:24:38.866Z,100785.00
2023-03-29T06:25:40.841Z,100780.59
2023-03-29T06:26:42.892Z,100785.88
2023-03-29T06:27:46.879Z,100788.56
2023-03-29T06:28:51.942Z,100785.09
2023-03-29T06:29:54.285Z,100788.53
2023-03-29T06:30:56.620Z,100794.63
2023-03-29T06:31:58.833Z,100785.00
2023-03-29T06:33:01.227Z,100778.06
2023-03-29T06:34:04.833Z,100796.41
2023-03-29T06:35:07.392Z,100784.25
2023-03-29T06:36:11.588Z,100781.59
2023-03-29T06:37:13.733Z,100788.53
2023-03-29T06:38:16.750Z,100786.75
2023-03-29T06:39:18.949Z,100789.31
2023-03-29T06:40:25.050Z,100787.59
2023-03-29T06:41:27.055Z,100787.59
2023-03-29T06:42:29.023Z,100791.13
2023-03-29T06:43:33.470Z,100790.34
2023-03-29T06:44:36.521Z,100788.63
2023-03-29T06:45:39.536Z,100792.19
2023-03-29T06:46:41.615Z,100784.31
2023-03-29T06:47:43.848Z,100787.84
2023-03-29T06:48:46.356Z,100792.22
2023-03-29T06:49:48.257Z,100784.34
2023-03-29T06:50:50.665Z,100786.13
2023-03-29T06:51:53.135Z,100780.84
2023-03-29T06:52:55.228Z,100793.91
2023-03-29T06:53:57.230Z,100778.22
2023-03-29T06:55:01.903Z,100772.09
2023-03-29T06:56:09.446Z,100775.56
2023-03-29T06:57:13.441Z,100778.19
2023-03-29T06:58:15.753Z,100772.16
2023-03-29T06:59:18.232Z,100773.00
2023-03-29T07:00:28.098Z,100775.66
2023-03-29T07:01:31.236Z,100780.03
2023-03-29T07:02:34.731Z,100773.91
2023-03-29T07:03:36.905Z,100769.59
2023-03-29T07:04:39.762Z,100775.72
2023-03-29T07:05:42.164Z,100774.00
2023-03-29T07:06:48.523Z,100777.47
2023-03-29T07:08:00.205Z,100773.97
2023-03-29T07:09:06.758Z,100783.56
2023-03-29T07:10:09.196Z,100772.22
2023-03-29T07:11:13.624Z,100772.25
2023-03-29T07:12:15.664Z,100770.56
2023-03-29T07:13:17.641Z,100779.25
2023-03-29T07:14:19.582Z,100764.38
2023-03-29T07:15:22.071Z,100769.59
2023-03-29T07:16:24.313Z,100774.81
2023-03-29T07:17:26.469Z,100780.06
2023-03-29T07:18:28.718Z,100774.00
2023-03-29T07:19:30.738Z,100774.00
2023-03-29T07:20:33.896Z,100769.66
2023-03-29T07:21:37.991Z,100765.28
2023-03-29T07:22:42.044Z,100758.31
2023-03-29T07:23:44.129Z,100773.19
2023-03-29T07:24:46.077Z,100763.53
2023-03-29T07:25:48.024Z,100767.88
2023-03-29T07:27:03.398Z,100775.75
2023-03-29T07:28:06.895Z,100766.16
2023-03-29T07:29:09.475Z,100760.91
2023-03-29T07:30:18.140Z,100763.56
2023-03-29T07:31:20.240Z,100767.13
2023-03-29T07:32:22.481Z,100766.28
2023-03-29T07:33:24.581Z,100760.19
2023-03-29T07:34:27.297Z,100761.06
2023-03-29T07:35:29.446Z,100768.06
2023-03-29T07:36:34.459Z,100769.84
2023-03-29T07:37:39.539Z,100768.97
2023-03-29T07:38:41.886Z,100768.06
2023-03-29T07:39:43.932Z,100760.19
2023-03-29T07:40:46.131Z,100764.59
2023-03-29T07:41:48.256Z,100765.44
2023-03-29T07:42:56.764Z,100765.44
2023-03-29T07:44:03.334Z,100773.31
2023-03-29T07:45:08.707Z,100773.31
2023-03-29T07:46:11.604Z,100770.69
2023-03-29T07:47:13.538Z,100771.56
2023-03-29T07:48:15.667Z,100768.94
2023-03-29T07:49:18.443Z,100771.56
2023-03-29T07:50:21.706Z,100763.72
2023-03-29T07:51:24.067Z,100761.94
2023-03-29T07:52:28.328Z,100765.44
2023-03-29T07:53:30.782Z,100762.81
2023-03-29T07:54:32.949Z,100765.44
2023-03-29T07:55:34.967Z,100763.69
2023-03-29T07:56:37.323Z,100765.44
2023-03-29T07:57:39.757Z,100768.97
2023-03-29T07:58:41.865Z,100775.09
2023-03-29T07:59:43.789Z,100764.59
2023-03-29T08:00:45.871Z,100771.56
2023-03-29T08:01:48.023Z,100771.56
2023-03-29T08:02:52.645Z,100764.59
2023-03-29T08:03:55.401Z,100766.34
2023-03-29T08:04:57.607Z,100765.44
2023-03-29T08:06:02.712Z,100760.19
2023-03-29T08:07:04.600Z,100763.69
2023-03-29T08:08:07.307Z,100757.53
2023-03-29T08:09:09.317Z,100761.91
2023-03-29T08:10:15.414Z,100766.28
2023-03-29T08:11:17.913Z,100769.78
2023-03-29T08:12:19.869Z,100761.00
2023-03-29T08:13:22.004Z,100762.81
2023-03-29T08:14:24.201Z,100767.19
2023-03-29T08:15:26.624Z,100770.69
2023-03-29T08:16:28.785Z,100770.69
2023-03-29T08:17:31.138Z,100766.31
2023-03-29T08:18:34.734Z,100769.81
2023-03-29T08:19:37.205Z,100766.31
2023-03-29T08:20:39.250Z,100768.06
2023-03-29T08:21:41.316Z,100758.44
2023-03-29T08:22:43.273Z,100772.44
2023-03-29T08:23:45.331Z,100767.19
2023-03-29T08:24:47.382Z,100767.19
2023-03-29T08:25:49.348Z,100765.41
2023-03-29T08:26:51.428Z,100764.53
2023-03-29T08:27:53.763Z,100762.75
2023-03-29T08:28:55.776Z,100768.03
2023-03-29T08:29:57.738Z,100761.88
2023-03-29T08:31:00.225Z,100761.88
2023-03-29T08:32:02.321Z,100764.47
2023-03-29T08:33:04.594Z,100764.50
2023-03-29T08:34:06.609Z,100769.75
2023-03-29T08:35:09.828Z,100764.47
2023-03-29T08:36:11.870Z,100760.13
2023-03-29T08:37:14.152Z,100761.81
2023-03-29T08:38:16.429Z,100769.66
2023-03-29T08:39:19.607Z,100757.41
2023-03-29T08:40:28.188Z,100759.16
2023-03-29T08:41:57.883Z,100751.31
2023-03-29T08:43:21.068Z,100760.97
2023-03-29T08:44:46.363Z,100762.72
2023-03-29T08:46:03.471Z,100754.84
2023-03-29T08:47:21.222Z,100760.06
2023-03-29T08:48:40.360Z,100753.00
2023-03-29T08:49:48.680Z,100761.75
2023-03-29T08:50:54.188Z,100762.63
2023-03-29T08:52:01.308Z,100766.09
2023-03-29T08:53:08.675Z,100744.09
2023-03-29T08:54:25.177Z,100764.28
2023-03-29T08:55:33.577Z,100766.06
2023-03-29T08:56:38.863Z,100763.50
2023-03-29T08:57:51.796Z,100763.59
2023-03-29T08:58:56.543Z,100761.00
2023-03-29T09:00:02.525Z,100757.50
2023-03-29T09:01:11.812Z,100759.22
2023-03-29T09:02:30.755Z,100764.50
2023-03-29T09:03:40.068Z,100755.72
2023-03-29T09:04:42.731Z,100755.75
2023-03-29T09:05:47.608Z,100756.63
2023-03-29T09:06:50.488Z,100757.50
2023-03-29T09:07:53.656Z,100758.38
2023-03-29T09:08:55.574Z,100760.94
2023-03-29T09:09:57.534Z,100765.28
2023-03-29T09:11:11.742Z,100753.88
2023-03-29T09:12:16.814Z,100764.34
2023-03-29T09:13:39.140Z,100756.44
2023-03-29T09:15:06.879Z,100752.97
2023-03-29T09:16:33.735Z,100743.22
2023-03-29T09:17:49.575Z,100748.41
2023-03-29T09:19:02.505Z,100744.81
2023-03-29T09:20:26.422Z,100751.69
2023-03-29T09:21:41.517Z,100742.84
2023-03-29T09:23:19.748Z,100751.50
2023-03-29T09:24:51.084Z,100746.16
2023-03-29T09:26:12.212Z,100744.38
2023-03-29T09:27:31.611Z,100748.78
2023-03-29T09:28:37.355Z,100739.25
2023-03-29T09:29:54.719Z,100748.09
2023-03-29T09:31:11.491Z,100737.66
2023-03-29T09:32:19.827Z,100748.25
2023-03-29T09:33:31.181Z,100742.09
2023-03-29T09:34:43.585Z,100736.78
2023-03-29T09:35:59.257Z,100721.88
2023-03-29T09:37:15.948Z,100731.50
2023-03-29T09:38:19.988Z,100732.50
2023-03-29T09:39:22.938Z,100732.38
2023-03-29T09:40:38.526Z,100732.47
2023-03-29T09:41:57.039Z,100729.94
2023-03-29T09:43:02.424Z,100741.38
2023-03-29T09:44:20.798Z,100730.03
2023-03-29T09:45:31.177Z,100730.88
2023-03-29T09:46:43.631Z,100714.16
2023-03-29T09:47:52.716Z,100728.19
2023-03-29T09:48:56.740Z,100728.13
2023-03-29T09:50:27.345Z,100720.25
2023-03-29T09:51:34.307Z,100729.84
2023-03-29T09:52:37.557Z,100726.25
2023-03-29T09:53:39.638Z,100712.09
2023-03-29T09:54:41.671Z,100719.97
2023-03-29T09:55:47.167Z,100721.69
2023-03-29T09:56:50.433Z,100715.59
2023-03-29T09:57:52.723Z,100710.19
2023-03-29T09:58:54.882Z,100713.66
2023-03-29T09:59:59.377Z,100703.94
2023-03-29T10:01:05.659Z,100709.19
2023-03-29T10:02:12.143Z,100709.13
2023-03-29T10:03:26.514Z,100701.97
2023-03-29T10:04:28.691Z,100699.38
2023-03-29T10:05:34.794Z,100696.69
2023-03-29T10:06:42.714Z,100700.38
2023-03-29T10:07:51.935Z,100698.59
2023-03-29T10:08:59.444Z,100709.00
2023-03-29T10:10:01.647Z,100686.13
2023-03-29T10:11:09.782Z,100680.72
2023-03-29T10:12:13.894Z,100693.00
2023-03-29T10:13:19.094Z,100683.34
2023-03-29T10:14:51.449Z,100691.22
2023-03-29T10:15:59.112Z,100684.09
2023-03-29T10:17:04.184Z,100681.34
2023-03-29T10:18:13.364Z,100679.63
2023-03-29T10:19:35.696Z,100665.44
2023-03-29T10:20:41.352Z,100668.06
2023-03-29T10:21:43.299Z,100672.53
2023-03-29T10:22:55.078Z,100662.84
2023-03-29T10:23:59.592Z,100671.56
2023-03-29T10:25:02.426Z,100661.06
2023-03-29T10:26:08.065Z,100661.91
2023-03-29T10:27:11.923Z,100654.91
2023-03-29T10:28:21.318Z,100654.88
2023-03-29T10:29:25.629Z,100663.53
2023-03-29T10:30:28.405Z,100657.34
2023-03-29T10:31:33.882Z,100652.19
2023-03-29T10:32:37.979Z,100647.84
2023-03-29T10:33:40.049Z,100655.75
2023-03-29T10:34:43.377Z,100644.91
2023-03-29T10:35:47.518Z,100635.31
2023-03-29T10:36:59.871Z,100647.72
2023-03-29T10:38:07.859Z,100656.66
2023-03-29T10:39:13.641Z,100655.84
2023-03-29T10:40:24.908Z,100653.28
2023-03-29T10:41:28.424Z,100657.66
2023-03-29T10:42:31.396Z,100657.63
2023-03-29T10:43:39.608Z,100653.16
2023-03-29T10:44:41.825Z,100655.72
2023-03-29T10:45:44.546Z,100648.69
2023-03-29T10:46:46.688Z,100652.09
2023-03-29T10:47:49.055Z,100653.03
2023-03-29T10:48:57.845Z,100639.81
2023-03-29T10:49:59.841Z,100641.53
2023-03-29T10:51:03.358Z,100661.66
2023-03-29T10:52:07.728Z,100644.00
2023-03-29T10:53:26.456Z,100649.13
2023-03-29T10:54:28.727Z,100656.19
2023-03-29T10:55:42.756Z,100649.91
2023-03-29T10:57:09.481Z,100636.56
2023-03-29T10:58:37.949Z,100637.38
2023-03-29T11:00:03.201Z,100632.06
2023-03-29T11:01:06.941Z,100628.47
2023-03-29T11:02:15.103Z,100625.56
2023-03-29T11:03:29.591Z,100615.00
2023-03-29T11:04:57.597Z,100619.41
2023-03-29T11:06:08.777Z,100623.13
2023-03-29T11:07:16.712Z,100626.56
2023-03-29T11:08:34.034Z,100618.50
2023-03-29T11:10:05.180Z,100633.47
2023-03-29T11:11:41.328Z,100609.66
2023-03-29T11:13:16.855Z,100621.88
2023-03-29T11:15:03.365Z,100625.50
2023-03-29T11:16:24.448Z,100608.75
2023-03-29T11:17:51.068Z,100612.34
2023-03-29T11:19:19.062Z,100618.38
2023-03-29T11:20:43.470Z,100594.56
2023-03-29T11:22:03.466Z,100617.47
2023-03-29T11:23:18.409Z,100608.78
2023-03-29T11:24:28.005Z,100607.59
2023-03-29T11:25:57.508Z,100610.28
2023-03-29T11:27:17.718Z,100623.44
2023-03-29T11:28:33.066Z,100610.31
2023-03-29T11:29:46.315Z,100605.88
2023-03-29T11:30:55.680Z,100610.25
2023-03-29T11:32:26.298Z,100611.91
2023-03-29T11:33:53.024Z,100609.97
2023-03-29T11:35:12.925Z,100608.91
2023-03-29T11:36:32.464Z,100606.25
2023-03-29T11:37:52.154Z,100608.13
2023-03-29T11:39:26.225Z,100597.44
2023-03-29T11:40:32.573Z,100619.38
2023-03-29T11:41:39.972Z,100600.06
2023-03-29T11:42:48.068Z,100599.22
2023-03-29T11:43:56.483Z,100611.56
2023-03-29T11:45:02.249Z,100600.06
2023-03-29T11:46:42.783Z,100602.66
2023-03-29T11:47:47.704Z,100603.44
2023-03-29T11:48:57.022Z,100599.91
2023-03-29T11:50:19.908Z,100599.66
2023-03-29T11:51:31.108Z,100604.84
2023-03-29T11:52:36.080Z,100604.06
2023-03-29T11:53:47.875Z,100602.22
2023-03-29T11:54:53.924Z,100592.78
2023-03-29T11:56:02.331Z,100606.66
2023-03-29T11:57:13.329Z,100600.44
2023-03-29T11:58:26.917Z,100581.66
2023-03-29T11:59:36.169Z,100598.69
2023-03-29T12:00:45.028Z,100600.56
2023-03-29T12:01:54.783Z,100604.13
2023-03-29T12:03:21.169Z,100594.22
2023-03-29T12:04:42.141Z,100606.59
2023-03-29T12:05:49.339Z,100593.28
2023-03-29T12:07:10.152Z,100587.94
2023-03-29T12:08:29.017Z,100578.97
2023-03-29T12:09:51.223Z,100582.53
2023-03-29T12:11:37.765Z,100591.38
2023-03-29T12:13:07.490Z,100574.59
2023-03-29T12:14:19.759Z,100571.16
2023-03-29T12:15:29.539Z,100580.88
2023-03-29T12:16:52.316Z,100575.66
2023-03-29T12:18:07.100Z,100573.66
2023-03-29T12:19:40.273Z,100577.09
2023-03-29T12:20:49.854Z,100577.94
2023-03-29T12:21:54.805Z,100588.53
2023-03-29T12:22:57.110Z,100569.94
2023-03-29T12:23:59.241Z,100576.13
2023-03-29T12:25:04.976Z,100586.81
2023-03-29T12:26:19.909Z,100582.53
2023-03-29T12:27:31.968Z,100591.34
2023-03-29T12:28:55.999Z,100585.09
2023-03-29T12:30:25.421Z,100574.53
2023-03-29T12:31:42.206Z,100572.72
2023-03-29T12:32:53.457Z,100568.31
2023-03-29T12:34:26.401Z,100562.19
2023-03-29T12:35:28.587Z,100561.38
2023-03-29T12:36:36.179Z,100553.38
2023-03-29T12:37:45.021Z,100552.25
2023-03-29T12:38:48.336Z,100553.13
2023-03-29T12:39:51.804Z,100564.59
2023-03-29T12:41:02.287Z,100550.53
2023-03-29T12:42:13.235Z,100558.34
2023-03-29T12:43:31.524Z,100564.47
2023-03-29T12:44:34.208Z,100553.94
2023-03-29T12:45:48.601Z,100539.66